sensor_id;sensor_type;location;lat;lon;timestamp;temperature;humidity
9125;DHT22;4597;48.730;9.114;2024-02-14T00:02:01;3.50;99.90
9125;DHT22;4597;48.730;9.114;2024-02-14T00:04:27;3.40;99.90
9125;DHT22;4597;48.730;9.114;2024-02-14T00:06:52;3.30;99.90
9125;DHT22;4597;48.730;9.114;2024-02-14T00:09:18;3.30;99.90
9125;DHT22;4597;48.730;9.114;2024-02-14T00:11:44;3.30;99.90
9125;DHT22;4597;48.730;9.114;2024-02-14T00:14:09;3.30;99.90
9125;DHT22;4597;48.730;9.114;2024-02-14T00:16:35;3.30;99.90
9125;DHT22;4597;48.730;9.114;2024-02-14T00:19:01;3.40;99.90
9125;DHT22;4597;48.730;9.114;2024-02-14T00:21:28;3.50;99.90
9125;DHT22;4597;48.730;9.114;2024-02-14T00:23:53;3.50;99.90
9125;DHT22;4597;48.730;9.114;2024-02-14T00:26:19;3.60;99.90
9125;DHT22;4597;48.730;9.114;2024-02-14T00:28:44;3.70;99.90
9125;DHT22;4597;48.730;9.114;2024-02-14T00:31:10;3.70;99.90
9125;DHT22;4597;48.730;9.114;2024-02-14T00:33:35;3.80;99.90
9125;DHT22;4597;48.730;9.114;2024-02-14T00:36:00;3.90;99.90
9125;DHT22;4597;48.730;9.114;2024-02-14T00:38:26;4.00;99.90
9125;DHT22;4597;48.730;9.114;2024-02-14T00:40:51;4.00;99.90
9125;DHT22;4597;48.730;9.114;2024-02-14T00:43:17;4.00;99.90
9125;DHT22;4597;48.730;9.114;2024-02-14T00:45:42;4.10;99.90
9125;DHT22;4597;48.730;9.114;2024-02-14T00:48:08;4.10;99.90
9125;DHT22;4597;48.730;9.114;2024-02-14T00:50:33;4.10;99.90
9125;DHT22;4597;48.730;9.114;2024-02-14T00:52:59;4.20;99.90
9125;DHT22;4597;48.730;9.114;2024-02-14T00:55:25;4.10;99.90
9125;DHT22;4597;48.730;9.114;2024-02-14T00:57:51;4.10;99.90
9125;DHT22;4597;48.730;9.114;2024-02-14T01:00:17;4.20;99.90
9125;DHT22;4597;48.730;9.114;2024-02-14T01:02:43;4.20;99.90
9125;DHT22;4597;48.730;9.114;2024-02-14T01:05:09;4.20;99.90
9125;DHT22;4597;48.730;9.114;2024-02-14T01:07:35;4.20;99.90
9125;DHT22;4597;48.730;9.114;2024-02-14T01:10:00;4.20;99.90
9125;DHT22;4597;48.730;9.114;2024-02-14T01:12:26;4.30;99.90
9125;DHT22;4597;48.730;9.114;2024-02-14T01:14:51;4.30;99.90
9125;DHT22;4597;48.730;9.114;2024-02-14T01:17:17;4.30;99.90
9125;DHT22;4597;48.730;9.114;2024-02-14T01:19:42;4.30;99.90
9125;DHT22;4597;48.730;9.114;2024-02-14T01:22:09;4.30;99.90
9125;DHT22;4597;48.730;9.114;2024-02-14T01:24:34;4.30;99.90
9125;DHT22;4597;48.730;9.114;2024-02-14T01:27:00;4.40;99.90
9125;DHT22;4597;48.730;9.114;2024-02-14T01:29:25;4.40;99.90
9125;DHT22;4597;48.730;9.114;2024-02-14T01:31:51;4.50;99.90
9125;DHT22;4597;48.730;9.114;2024-02-14T01:34:17;4.50;99.90
9125;DHT22;4597;48.730;9.114;2024-02-14T01:36:42;4.50;99.90
9125;DHT22;4597;48.730;9.114;2024-02-14T01:39:08;4.50;99.90
9125;DHT22;4597;48.730;9.114;2024-02-14T01:41:46;4.60;99.90
9125;DHT22;4597;48.730;9.114;2024-02-14T01:44:15;4.60;99.90
9125;DHT22;4597;48.730;9.114;2024-02-14T01:46:41;4.60;99.90
9125;DHT22;4597;48.730;9.114;2024-02-14T01:49:08;4.70;99.90
9125;DHT22;4597;48.730;9.114;2024-02-14T01:51:35;4.70;99.90
9125;DHT22;4597;48.730;9.114;2024-02-14T01:54:03;4.70;99.90
9125;DHT22;4597;48.730;9.114;2024-02-14T01:56:29;4.70;99.90
9125;DHT22;4597;48.730;9.114;2024-02-14T01:58:56;4.70;99.90
9125;DHT22;4597;48.730;9.114;2024-02-14T02:01:21;4.80;99.90
9125;DHT22;4597;48.730;9.114;2024-02-14T02:03:49;4.80;99.90
9125;DHT22;4597;48.730;9.114;2024-02-14T02:06:14;4.80;99.90
9125;DHT22;4597;48.730;9.114;2024-02-14T02:08:44;4.80;99.90
9125;DHT22;4597;48.730;9.114;2024-02-14T02:11:10;4.80;99.90
9125;DHT22;4597;48.730;9.114;2024-02-14T02:13:36;4.80;99.90
9125;DHT22;4597;48.730;9.114;2024-02-14T02:16:04;4.70;99.90
9125;DHT22;4597;48.730;9.114;2024-02-14T02:18:31;4.60;99.90
9125;DHT22;4597;48.730;9.114;2024-02-14T02:20:56;4.50;99.90
9125;DHT22;4597;48.730;9.114;2024-02-14T02:23:22;4.50;99.90
9125;DHT22;4597;48.730;9.114;2024-02-14T02:25:48;4.40;99.90
9125;DHT22;4597;48.730;9.114;2024-02-14T02:28:14;4.30;99.90
9125;DHT22;4597;48.730;9.114;2024-02-14T02:30:40;4.20;99.90
9125;DHT22;4597;48.730;9.114;2024-02-14T02:33:05;4.20;99.90
9125;DHT22;4597;48.730;9.114;2024-02-14T02:35:35;4.10;99.90
9125;DHT22;4597;48.730;9.114;2024-02-14T02:38:01;4.10;99.90
9125;DHT22;4597;48.730;9.114;2024-02-14T02:40:26;4.10;99.90
9125;DHT22;4597;48.730;9.114;2024-02-14T02:42:56;4.10;99.90
9125;DHT22;4597;48.730;9.114;2024-02-14T02:45:21;4.10;99.90
9125;DHT22;4597;48.730;9.114;2024-02-14T02:47:47;4.10;99.90
9125;DHT22;4597;48.730;9.114;2024-02-14T02:50:13;4.00;99.90
9125;DHT22;4597;48.730;9.114;2024-02-14T02:52:39;4.00;99.90
9125;DHT22;4597;48.730;9.114;2024-02-14T02:55:06;4.00;99.90
9125;DHT22;4597;48.730;9.114;2024-02-14T02:57:32;4.00;99.90
9125;DHT22;4597;48.730;9.114;2024-02-14T02:59:59;4.00;99.90
9125;DHT22;4597;48.730;9.114;2024-02-14T03:02:24;4.00;99.90
9125;DHT22;4597;48.730;9.114;2024-02-14T03:04:51;4.10;99.90
9125;DHT22;4597;48.730;9.114;2024-02-14T03:07:18;4.10;99.90
9125;DHT22;4597;48.730;9.114;2024-02-14T03:09:44;4.10;99.90
9125;DHT22;4597;48.730;9.114;2024-02-14T03:12:09;4.10;99.90
9125;DHT22;4597;48.730;9.114;2024-02-14T03:14:35;4.10;99.90
9125;DHT22;4597;48.730;9.114;2024-02-14T03:17:04;4.10;99.90
9125;DHT22;4597;48.730;9.114;2024-02-14T03:19:30;4.10;99.90
9125;DHT22;4597;48.730;9.114;2024-02-14T03:21:56;4.10;99.90
9125;DHT22;4597;48.730;9.114;2024-02-14T03:24:23;4.10;99.90
9125;DHT22;4597;48.730;9.114;2024-02-14T03:26:52;4.10;99.90
9125;DHT22;4597;48.730;9.114;2024-02-14T03:29:19;4.10;99.90
9125;DHT22;4597;48.730;9.114;2024-02-14T03:31:45;4.10;99.90
9125;DHT22;4597;48.730;9.114;2024-02-14T03:34:10;4.10;99.90
9125;DHT22;4597;48.730;9.114;2024-02-14T03:36:39;4.20;99.90
9125;DHT22;4597;48.730;9.114;2024-02-14T03:39:05;4.20;99.90
9125;DHT22;4597;48.730;9.114;2024-02-14T03:41:30;4.30;99.90
9125;DHT22;4597;48.730;9.114;2024-02-14T03:43:56;4.40;99.90
9125;DHT22;4597;48.730;9.114;2024-02-14T03:46:28;4.50;99.90
9125;DHT22;4597;48.730;9.114;2024-02-14T03:48:55;4.60;99.90
9125;DHT22;4597;48.730;9.114;2024-02-14T03:51:23;4.70;99.90
9125;DHT22;4597;48.730;9.114;2024-02-14T03:53:48;4.80;99.90
9125;DHT22;4597;48.730;9.114;2024-02-14T03:56:14;4.70;99.90
9125;DHT22;4597;48.730;9.114;2024-02-14T03:58:41;4.70;99.90
9125;DHT22;4597;48.730;9.114;2024-02-14T04:01:07;4.70;99.90
9125;DHT22;4597;48.730;9.114;2024-02-14T04:03:33;4.70;99.90
9125;DHT22;4597;48.730;9.114;2024-02-14T04:05:58;4.70;99.90
9125;DHT22;4597;48.730;9.114;2024-02-14T04:08:24;4.70;99.90
9125;DHT22;4597;48.730;9.114;2024-02-14T04:10:49;4.70;99.90
9125;DHT22;4597;48.730;9.114;2024-02-14T04:13:16;4.80;99.90
9125;DHT22;4597;48.730;9.114;2024-02-14T04:15:42;4.80;99.90
9125;DHT22;4597;48.730;9.114;2024-02-14T04:18:11;4.80;99.90
9125;DHT22;4597;48.730;9.114;2024-02-14T04:20:37;4.90;99.90
9125;DHT22;4597;48.730;9.114;2024-02-14T04:23:03;4.90;99.90
9125;DHT22;4597;48.730;9.114;2024-02-14T04:25:31;4.90;99.90
9125;DHT22;4597;48.730;9.114;2024-02-14T04:27:56;5.00;99.90
9125;DHT22;4597;48.730;9.114;2024-02-14T04:30:22;5.00;99.90
9125;DHT22;4597;48.730;9.114;2024-02-14T04:32:48;5.10;99.90
9125;DHT22;4597;48.730;9.114;2024-02-14T04:35:14;5.10;99.90
9125;DHT22;4597;48.730;9.114;2024-02-14T04:37:40;5.00;99.90
9125;DHT22;4597;48.730;9.114;2024-02-14T04:40:08;5.00;99.90
9125;DHT22;4597;48.730;9.114;2024-02-14T04:42:35;5.10;99.90
9125;DHT22;4597;48.730;9.114;2024-02-14T04:45:00;5.20;99.90
9125;DHT22;4597;48.730;9.114;2024-02-14T04:47:26;5.20;99.90
9125;DHT22;4597;48.730;9.114;2024-02-14T04:49:52;5.10;99.90
9125;DHT22;4597;48.730;9.114;2024-02-14T04:52:18;5.10;99.90
9125;DHT22;4597;48.730;9.114;2024-02-14T04:54:43;5.10;99.90
9125;DHT22;4597;48.730;9.114;2024-02-14T04:57:09;5.10;99.90
9125;DHT22;4597;48.730;9.114;2024-02-14T04:59:34;5.20;99.90
9125;DHT22;4597;48.730;9.114;2024-02-14T05:02:00;5.20;99.90
9125;DHT22;4597;48.730;9.114;2024-02-14T05:04:26;5.30;99.90
9125;DHT22;4597;48.730;9.114;2024-02-14T05:06:51;5.30;99.90
9125;DHT22;4597;48.730;9.114;2024-02-14T05:09:18;5.30;99.90
9125;DHT22;4597;48.730;9.114;2024-02-14T05:11:43;5.40;99.90
9125;DHT22;4597;48.730;9.114;2024-02-14T05:14:09;5.40;99.90
9125;DHT22;4597;48.730;9.114;2024-02-14T05:16:34;5.30;99.90
9125;DHT22;4597;48.730;9.114;2024-02-14T05:19:00;5.30;99.90
9125;DHT22;4597;48.730;9.114;2024-02-14T05:21:26;5.30;99.90
9125;DHT22;4597;48.730;9.114;2024-02-14T05:23:52;5.40;99.90
9125;DHT22;4597;48.730;9.114;2024-02-14T05:26:18;5.40;99.90
9125;DHT22;4597;48.730;9.114;2024-02-14T05:28:43;5.40;99.90
9125;DHT22;4597;48.730;9.114;2024-02-14T05:31:09;5.40;99.90
9125;DHT22;4597;48.730;9.114;2024-02-14T05:33:34;5.40;99.90
9125;DHT22;4597;48.730;9.114;2024-02-14T05:36:00;5.40;99.90
9125;DHT22;4597;48.730;9.114;2024-02-14T05:38:25;5.30;99.90
9125;DHT22;4597;48.730;9.114;2024-02-14T05:40:51;5.30;99.90
9125;DHT22;4597;48.730;9.114;2024-02-14T05:43:16;5.30;99.90
9125;DHT22;4597;48.730;9.114;2024-02-14T05:45:45;5.40;99.90
9125;DHT22;4597;48.730;9.114;2024-02-14T05:48:11;5.40;99.90
9125;DHT22;4597;48.730;9.114;2024-02-14T05:50:36;5.40;99.90
9125;DHT22;4597;48.730;9.114;2024-02-14T05:53:03;5.50;99.90
9125;DHT22;4597;48.730;9.114;2024-02-14T05:55:28;5.50;99.90
9125;DHT22;4597;48.730;9.114;2024-02-14T05:57:54;5.50;99.90
9125;DHT22;4597;48.730;9.114;2024-02-14T06:00:20;5.50;99.90
9125;DHT22;4597;48.730;9.114;2024-02-14T06:02:46;5.50;99.90
9125;DHT22;4597;48.730;9.114;2024-02-14T06:05:13;5.50;99.90
9125;DHT22;4597;48.730;9.114;2024-02-14T06:07:38;5.40;99.90
9125;DHT22;4597;48.730;9.114;2024-02-14T06:10:06;5.30;99.90
9125;DHT22;4597;48.730;9.114;2024-02-14T06:12:32;5.30;99.90
9125;DHT22;4597;48.730;9.114;2024-02-14T06:14:58;5.30;99.90
9125;DHT22;4597;48.730;9.114;2024-02-14T06:17:23;5.30;99.90
9125;DHT22;4597;48.730;9.114;2024-02-14T06:19:49;5.20;99.90
9125;DHT22;4597;48.730;9.114;2024-02-14T06:22:14;5.30;99.90
9125;DHT22;4597;48.730;9.114;2024-02-14T06:24:40;5.30;99.90
9125;DHT22;4597;48.730;9.114;2024-02-14T06:27:06;5.30;99.90
9125;DHT22;4597;48.730;9.114;2024-02-14T06:29:31;5.40;99.90
9125;DHT22;4597;48.730;9.114;2024-02-14T06:31:57;5.40;99.90
9125;DHT22;4597;48.730;9.114;2024-02-14T06:34:22;5.50;99.90
9125;DHT22;4597;48.730;9.114;2024-02-14T06:36:48;5.50;99.90
9125;DHT22;4597;48.730;9.114;2024-02-14T06:39:13;5.60;99.90
9125;DHT22;4597;48.730;9.114;2024-02-14T06:41:39;5.70;99.90
9125;DHT22;4597;48.730;9.114;2024-02-14T06:44:05;5.70;99.90
9125;DHT22;4597;48.730;9.114;2024-02-14T06:46:31;5.80;99.90
9125;DHT22;4597;48.730;9.114;2024-02-14T06:48:56;5.90;99.90
9125;DHT22;4597;48.730;9.114;2024-02-14T06:51:22;5.90;99.90
9125;DHT22;4597;48.730;9.114;2024-02-14T06:53:49;6.00;99.90
9125;DHT22;4597;48.730;9.114;2024-02-14T06:56:15;5.90;99.90
9125;DHT22;4597;48.730;9.114;2024-02-14T06:58:40;5.90;99.90
9125;DHT22;4597;48.730;9.114;2024-02-14T07:01:06;5.90;99.90
9125;DHT22;4597;48.730;9.114;2024-02-14T07:03:31;6.00;99.90
9125;DHT22;4597;48.730;9.114;2024-02-14T07:05:57;6.00;99.90
9125;DHT22;4597;48.730;9.114;2024-02-14T07:08:23;6.00;99.90
9125;DHT22;4597;48.730;9.114;2024-02-14T07:10:51;6.10;99.90
9125;DHT22;4597;48.730;9.114;2024-02-14T07:13:16;6.10;99.90
9125;DHT22;4597;48.730;9.114;2024-02-14T07:15:42;6.20;99.90
9125;DHT22;4597;48.730;9.114;2024-02-14T07:18:09;6.30;99.90
9125;DHT22;4597;48.730;9.114;2024-02-14T07:20:35;6.30;99.90
9125;DHT22;4597;48.730;9.114;2024-02-14T07:23:00;6.30;99.90
9125;DHT22;4597;48.730;9.114;2024-02-14T07:25:27;6.50;99.90
9125;DHT22;4597;48.730;9.114;2024-02-14T07:27:52;6.50;99.90
9125;DHT22;4597;48.730;9.114;2024-02-14T07:30:18;6.60;99.90
9125;DHT22;4597;48.730;9.114;2024-02-14T07:32:44;6.70;99.90
9125;DHT22;4597;48.730;9.114;2024-02-14T07:35:10;6.70;99.90
9125;DHT22;4597;48.730;9.114;2024-02-14T07:37:36;6.90;99.90
9125;DHT22;4597;48.730;9.114;2024-02-14T07:40:02;7.00;99.90
9125;DHT22;4597;48.730;9.114;2024-02-14T07:42:28;7.00;99.90
9125;DHT22;4597;48.730;9.114;2024-02-14T07:44:53;7.10;99.90
9125;DHT22;4597;48.730;9.114;2024-02-14T07:47:21;7.10;99.90
9125;DHT22;4597;48.730;9.114;2024-02-14T07:49:47;7.20;99.90
9125;DHT22;4597;48.730;9.114;2024-02-14T07:52:13;7.20;99.90
9125;DHT22;4597;48.730;9.114;2024-02-14T07:54:38;7.30;99.90
9125;DHT22;4597;48.730;9.114;2024-02-14T07:57:04;7.30;99.90
9125;DHT22;4597;48.730;9.114;2024-02-14T07:59:29;7.30;99.90
9125;DHT22;4597;48.730;9.114;2024-02-14T08:01:55;7.40;99.90
9125;DHT22;4597;48.730;9.114;2024-02-14T08:04:23;7.40;99.90
9125;DHT22;4597;48.730;9.114;2024-02-14T08:06:49;7.40;99.90
9125;DHT22;4597;48.730;9.114;2024-02-14T08:09:14;7.50;99.90
9125;DHT22;4597;48.730;9.114;2024-02-14T08:11:40;7.50;99.90
9125;DHT22;4597;48.730;9.114;2024-02-14T08:14:06;7.50;99.90
9125;DHT22;4597;48.730;9.114;2024-02-14T08:16:31;7.60;99.90
9125;DHT22;4597;48.730;9.114;2024-02-14T08:18:57;7.70;99.90
9125;DHT22;4597;48.730;9.114;2024-02-14T08:21:25;7.80;99.90
9125;DHT22;4597;48.730;9.114;2024-02-14T08:23:52;7.80;99.90
9125;DHT22;4597;48.730;9.114;2024-02-14T08:26:18;7.90;99.90
9125;DHT22;4597;48.730;9.114;2024-02-14T08:28:43;7.80;99.90
9125;DHT22;4597;48.730;9.114;2024-02-14T08:31:12;7.90;99.90
9125;DHT22;4597;48.730;9.114;2024-02-14T08:33:37;7.80;99.90
9125;DHT22;4597;48.730;9.114;2024-02-14T08:36:06;7.60;99.90
9125;DHT22;4597;48.730;9.114;2024-02-14T08:38:32;7.60;99.90
9125;DHT22;4597;48.730;9.114;2024-02-14T08:40:58;7.70;99.90
9125;DHT22;4597;48.730;9.114;2024-02-14T08:43:24;7.70;99.90
9125;DHT22;4597;48.730;9.114;2024-02-14T08:45:54;7.80;99.90
9125;DHT22;4597;48.730;9.114;2024-02-14T08:48:19;7.90;99.90
9125;DHT22;4597;48.730;9.114;2024-02-14T08:50:45;8.00;99.90
9125;DHT22;4597;48.730;9.114;2024-02-14T08:53:12;8.10;99.90
9125;DHT22;4597;48.730;9.114;2024-02-14T08:55:41;8.20;99.90
9125;DHT22;4597;48.730;9.114;2024-02-14T08:58:07;8.30;99.90
9125;DHT22;4597;48.730;9.114;2024-02-14T09:00:37;8.30;99.90
9125;DHT22;4597;48.730;9.114;2024-02-14T09:03:04;8.30;99.90
9125;DHT22;4597;48.730;9.114;2024-02-14T09:05:30;8.40;99.90
9125;DHT22;4597;48.730;9.114;2024-02-14T09:07:55;8.40;99.90
9125;DHT22;4597;48.730;9.114;2024-02-14T09:10:21;8.40;99.90
9125;DHT22;4597;48.730;9.114;2024-02-14T09:12:47;8.40;99.90
9125;DHT22;4597;48.730;9.114;2024-02-14T09:15:13;8.50;99.90
9125;DHT22;4597;48.730;9.114;2024-02-14T09:17:38;8.60;99.90
9125;DHT22;4597;48.730;9.114;2024-02-14T09:20:09;8.60;99.90
9125;DHT22;4597;48.730;9.114;2024-02-14T09:22:35;8.60;99.90
9125;DHT22;4597;48.730;9.114;2024-02-14T09:25:01;8.70;99.90
9125;DHT22;4597;48.730;9.114;2024-02-14T09:27:32;8.80;99.90
9125;DHT22;4597;48.730;9.114;2024-02-14T09:29:58;8.90;99.90
9125;DHT22;4597;48.730;9.114;2024-02-14T09:32:24;9.00;99.90
9125;DHT22;4597;48.730;9.114;2024-02-14T09:34:50;9.10;99.90
9125;DHT22;4597;48.730;9.114;2024-02-14T09:37:16;9.10;99.90
9125;DHT22;4597;48.730;9.114;2024-02-14T09:39:41;9.20;99.90
9125;DHT22;4597;48.730;9.114;2024-02-14T09:42:13;9.30;99.90
9125;DHT22;4597;48.730;9.114;2024-02-14T09:44:40;9.40;99.90
9125;DHT22;4597;48.730;9.114;2024-02-14T09:47:07;9.50;99.90
9125;DHT22;4597;48.730;9.114;2024-02-14T09:49:35;9.70;99.90
9125;DHT22;4597;48.730;9.114;2024-02-14T09:52:05;9.90;99.90
9125;DHT22;4597;48.730;9.114;2024-02-14T09:54:32;10.00;99.90
9125;DHT22;4597;48.730;9.114;2024-02-14T09:57:02;10.10;99.90
9125;DHT22;4597;48.730;9.114;2024-02-14T09:59:28;10.20;99.90
9125;DHT22;4597;48.730;9.114;2024-02-14T10:01:54;10.40;99.90
9125;DHT22;4597;48.730;9.114;2024-02-14T10:04:19;10.50;99.90
9125;DHT22;4597;48.730;9.114;2024-02-14T10:06:46;10.60;99.90
9125;DHT22;4597;48.730;9.114;2024-02-14T10:09:11;10.80;99.90
9125;DHT22;4597;48.730;9.114;2024-02-14T10:11:37;10.90;99.90
9125;DHT22;4597;48.730;9.114;2024-02-14T10:14:04;10.90;99.90
9125;DHT22;4597;48.730;9.114;2024-02-14T10:16:35;11.10;99.90
9125;DHT22;4597;48.730;9.114;2024-02-14T10:19:01;11.20;99.90
9125;DHT22;4597;48.730;9.114;2024-02-14T10:21:28;11.20;99.90
9125;DHT22;4597;48.730;9.114;2024-02-14T10:23:53;11.30;99.90
9125;DHT22;4597;48.730;9.114;2024-02-14T10:26:23;11.40;99.90
9125;DHT22;4597;48.730;9.114;2024-02-14T10:28:48;11.50;99.90
9125;DHT22;4597;48.730;9.114;2024-02-14T10:31:15;11.60;99.90
9125;DHT22;4597;48.730;9.114;2024-02-14T10:33:41;11.60;99.90
9125;DHT22;4597;48.730;9.114;2024-02-14T10:36:12;11.60;99.90
9125;DHT22;4597;48.730;9.114;2024-02-14T10:38:39;11.60;99.90
9125;DHT22;4597;48.730;9.114;2024-02-14T10:41:05;11.70;99.90
9125;DHT22;4597;48.730;9.114;2024-02-14T10:43:31;11.80;99.90
9125;DHT22;4597;48.730;9.114;2024-02-14T10:45:59;11.90;99.90
9125;DHT22;4597;48.730;9.114;2024-02-14T10:48:26;12.10;99.90
9125;DHT22;4597;48.730;9.114;2024-02-14T10:50:58;12.30;99.90
9125;DHT22;4597;48.730;9.114;2024-02-14T10:53:26;12.20;99.90
9125;DHT22;4597;48.730;9.114;2024-02-14T10:55:55;12.00;99.90
9125;DHT22;4597;48.730;9.114;2024-02-14T10:58:24;11.90;99.90
9125;DHT22;4597;48.730;9.114;2024-02-14T11:00:50;11.80;99.90
9125;DHT22;4597;48.730;9.114;2024-02-14T11:03:17;11.80;99.90
9125;DHT22;4597;48.730;9.114;2024-02-14T11:05:46;11.60;99.90
9125;DHT22;4597;48.730;9.114;2024-02-14T11:08:21;11.40;99.90
9125;DHT22;4597;48.730;9.114;2024-02-14T11:10:55;11.30;99.90
9125;DHT22;4597;48.730;9.114;2024-02-14T11:13:24;11.30;99.90
9125;DHT22;4597;48.730;9.114;2024-02-14T11:15:51;11.30;99.90
9125;DHT22;4597;48.730;9.114;2024-02-14T11:18:25;11.50;99.90
9125;DHT22;4597;48.730;9.114;2024-02-14T11:20:52;11.70;99.90
9125;DHT22;4597;48.730;9.114;2024-02-14T11:23:21;11.80;99.90
9125;DHT22;4597;48.730;9.114;2024-02-14T11:25:47;11.80;99.90
9125;DHT22;4597;48.730;9.114;2024-02-14T11:28:14;12.00;99.90
9125;DHT22;4597;48.730;9.114;2024-02-14T11:30:41;12.20;99.90
9125;DHT22;4597;48.730;9.114;2024-02-14T11:33:17;12.10;99.90
9125;DHT22;4597;48.730;9.114;2024-02-14T11:35:49;12.00;99.90
9125;DHT22;4597;48.730;9.114;2024-02-14T11:38:17;12.00;99.90
9125;DHT22;4597;48.730;9.114;2024-02-14T11:40:43;12.00;99.90
9125;DHT22;4597;48.730;9.114;2024-02-14T11:43:19;12.10;99.90
9125;DHT22;4597;48.730;9.114;2024-02-14T11:45:46;12.30;99.90
9125;DHT22;4597;48.730;9.114;2024-02-14T11:48:15;12.40;99.90
9125;DHT22;4597;48.730;9.114;2024-02-14T11:50:42;12.50;99.90
9125;DHT22;4597;48.730;9.114;2024-02-14T11:53:13;12.60;99.90
9125;DHT22;4597;48.730;9.114;2024-02-14T11:55:40;12.70;99.90
9125;DHT22;4597;48.730;9.114;2024-02-14T11:58:14;12.90;99.90
9125;DHT22;4597;48.730;9.114;2024-02-14T12:00:42;12.90;99.90
9125;DHT22;4597;48.730;9.114;2024-02-14T12:03:18;12.90;99.90
9125;DHT22;4597;48.730;9.114;2024-02-14T12:05:44;13.00;99.90
9125;DHT22;4597;48.730;9.114;2024-02-14T12:08:12;13.10;99.90
9125;DHT22;4597;48.730;9.114;2024-02-14T12:10:38;13.10;99.90
9125;DHT22;4597;48.730;9.114;2024-02-14T12:13:22;13.30;99.90
9125;DHT22;4597;48.730;9.114;2024-02-14T12:15:49;13.40;99.90
9125;DHT22;4597;48.730;9.114;2024-02-14T12:18:19;13.70;99.90
9125;DHT22;4597;48.730;9.114;2024-02-14T12:20:45;13.90;99.90
9125;DHT22;4597;48.730;9.114;2024-02-14T12:23:16;13.90;99.90
9125;DHT22;4597;48.730;9.114;2024-02-14T12:25:43;14.00;99.90
9125;DHT22;4597;48.730;9.114;2024-02-14T12:28:08;14.00;99.90
9125;DHT22;4597;48.730;9.114;2024-02-14T12:30:51;14.10;99.90
9125;DHT22;4597;48.730;9.114;2024-02-14T12:33:21;14.00;99.90
9125;DHT22;4597;48.730;9.114;2024-02-14T12:35:50;14.10;99.90
9125;DHT22;4597;48.730;9.114;2024-02-14T12:38:18;14.10;99.90
9125;DHT22;4597;48.730;9.114;2024-02-14T12:40:44;14.10;99.90
9125;DHT22;4597;48.730;9.114;2024-02-14T12:43:12;14.20;99.90
9125;DHT22;4597;48.730;9.114;2024-02-14T12:45:38;14.30;99.90
9125;DHT22;4597;48.730;9.114;2024-02-14T12:48:05;14.50;99.90
9125;DHT22;4597;48.730;9.114;2024-02-14T12:50:31;14.50;99.90
9125;DHT22;4597;48.730;9.114;2024-02-14T12:52:57;14.60;99.90
9125;DHT22;4597;48.730;9.114;2024-02-14T12:55:23;14.50;99.90
9125;DHT22;4597;48.730;9.114;2024-02-14T12:57:51;14.30;99.90
9125;DHT22;4597;48.730;9.114;2024-02-14T13:00:17;14.30;99.90
9125;DHT22;4597;48.730;9.114;2024-02-14T13:02:42;14.40;99.90
9125;DHT22;4597;48.730;9.114;2024-02-14T13:05:08;14.70;99.90
9125;DHT22;4597;48.730;9.114;2024-02-14T13:07:36;14.70;99.90
9125;DHT22;4597;48.730;9.114;2024-02-14T13:10:03;14.80;99.90
9125;DHT22;4597;48.730;9.114;2024-02-14T13:12:29;14.80;99.90
9125;DHT22;4597;48.730;9.114;2024-02-14T13:14:54;14.70;99.90
9125;DHT22;4597;48.730;9.114;2024-02-14T13:17:20;14.50;99.90
9125;DHT22;4597;48.730;9.114;2024-02-14T13:19:45;14.50;99.90
9125;DHT22;4597;48.730;9.114;2024-02-14T13:22:11;14.50;99.90
9125;DHT22;4597;48.730;9.114;2024-02-14T13:24:37;14.50;99.90
9125;DHT22;4597;48.730;9.114;2024-02-14T13:27:03;14.50;99.90
9125;DHT22;4597;48.730;9.114;2024-02-14T13:29:29;14.50;99.90
9125;DHT22;4597;48.730;9.114;2024-02-14T13:31:54;14.50;99.90
9125;DHT22;4597;48.730;9.114;2024-02-14T13:34:20;14.40;99.90
9125;DHT22;4597;48.730;9.114;2024-02-14T13:36:46;14.50;99.90
9125;DHT22;4597;48.730;9.114;2024-02-14T13:39:13;14.40;99.90
9125;DHT22;4597;48.730;9.114;2024-02-14T13:41:40;14.40;99.90
9125;DHT22;4597;48.730;9.114;2024-02-14T13:44:08;14.40;99.90
9125;DHT22;4597;48.730;9.114;2024-02-14T13:46:34;14.40;99.90
9125;DHT22;4597;48.730;9.114;2024-02-14T13:49:00;14.20;99.90
9125;DHT22;4597;48.730;9.114;2024-02-14T13:51:26;14.20;99.90
9125;DHT22;4597;48.730;9.114;2024-02-14T13:53:52;14.10;99.90
9125;DHT22;4597;48.730;9.114;2024-02-14T13:56:18;14.00;99.90
9125;DHT22;4597;48.730;9.114;2024-02-14T13:58:46;14.00;99.90
9125;DHT22;4597;48.730;9.114;2024-02-14T14:01:12;13.90;99.90
9125;DHT22;4597;48.730;9.114;2024-02-14T14:03:38;13.90;99.90
9125;DHT22;4597;48.730;9.114;2024-02-14T14:06:03;14.00;99.90
9125;DHT22;4597;48.730;9.114;2024-02-14T14:08:31;14.00;99.90
9125;DHT22;4597;48.730;9.114;2024-02-14T14:10:56;14.00;99.90
9125;DHT22;4597;48.730;9.114;2024-02-14T14:13:22;14.10;99.90
9125;DHT22;4597;48.730;9.114;2024-02-14T14:15:47;14.00;99.90
9125;DHT22;4597;48.730;9.114;2024-02-14T14:18:13;14.10;99.90
9125;DHT22;4597;48.730;9.114;2024-02-14T14:20:38;14.00;99.90
9125;DHT22;4597;48.730;9.114;2024-02-14T14:23:04;14.10;99.90
9125;DHT22;4597;48.730;9.114;2024-02-14T14:25:30;14.10;99.90
9125;DHT22;4597;48.730;9.114;2024-02-14T14:27:58;14.10;99.90
9125;DHT22;4597;48.730;9.114;2024-02-14T14:30:24;14.10;99.90
9125;DHT22;4597;48.730;9.114;2024-02-14T14:32:49;14.20;99.90
9125;DHT22;4597;48.730;9.114;2024-02-14T14:35:15;14.20;99.90
9125;DHT22;4597;48.730;9.114;2024-02-14T14:37:40;14.30;99.90
9125;DHT22;4597;48.730;9.114;2024-02-14T14:40:06;14.30;99.90
9125;DHT22;4597;48.730;9.114;2024-02-14T14:42:33;14.40;99.90
9125;DHT22;4597;48.730;9.114;2024-02-14T14:44:59;14.50;99.90
9125;DHT22;4597;48.730;9.114;2024-02-14T14:47:24;14.50;99.90
9125;DHT22;4597;48.730;9.114;2024-02-14T14:49:50;14.50;99.90
9125;DHT22;4597;48.730;9.114;2024-02-14T14:52:16;14.40;99.90
9125;DHT22;4597;48.730;9.114;2024-02-14T14:54:41;14.30;99.90
9125;DHT22;4597;48.730;9.114;2024-02-14T14:57:07;14.30;99.90
9125;DHT22;4597;48.730;9.114;2024-02-14T14:59:39;14.20;99.90
9125;DHT22;4597;48.730;9.114;2024-02-14T15:02:06;14.30;99.90
9125;DHT22;4597;48.730;9.114;2024-02-14T15:04:32;14.30;99.90
9125;DHT22;4597;48.730;9.114;2024-02-14T15:06:57;14.30;99.90
9125;DHT22;4597;48.730;9.114;2024-02-14T15:09:23;14.40;99.90
9125;DHT22;4597;48.730;9.114;2024-02-14T15:11:48;14.30;99.90
9125;DHT22;4597;48.730;9.114;2024-02-14T15:14:14;14.30;99.90
9125;DHT22;4597;48.730;9.114;2024-02-14T15:16:39;14.30;99.90
9125;DHT22;4597;48.730;9.114;2024-02-14T15:19:05;14.20;99.90
9125;DHT22;4597;48.730;9.114;2024-02-14T15:21:32;14.10;99.90
9125;DHT22;4597;48.730;9.114;2024-02-14T15:23:57;14.10;99.90
9125;DHT22;4597;48.730;9.114;2024-02-14T15:26:23;14.10;99.90
9125;DHT22;4597;48.730;9.114;2024-02-14T15:28:50;14.00;99.90
9125;DHT22;4597;48.730;9.114;2024-02-14T15:31:24;13.90;99.90
9125;DHT22;4597;48.730;9.114;2024-02-14T15:34:08;13.80;99.90
9125;DHT22;4597;48.730;9.114;2024-02-14T15:36:34;13.70;99.90
9125;DHT22;4597;48.730;9.114;2024-02-14T15:38:59;13.70;99.90
9125;DHT22;4597;48.730;9.114;2024-02-14T15:41:25;13.60;99.90
9125;DHT22;4597;48.730;9.114;2024-02-14T15:43:51;13.60;99.90
9125;DHT22;4597;48.730;9.114;2024-02-14T15:46:16;13.50;99.90
9125;DHT22;4597;48.730;9.114;2024-02-14T15:48:43;13.50;99.90
9125;DHT22;4597;48.730;9.114;2024-02-14T15:51:09;13.40;99.90
9125;DHT22;4597;48.730;9.114;2024-02-14T15:53:35;13.30;99.90
9125;DHT22;4597;48.730;9.114;2024-02-14T15:56:01;13.20;99.90
9125;DHT22;4597;48.730;9.114;2024-02-14T15:58:27;13.20;99.90
9125;DHT22;4597;48.730;9.114;2024-02-14T16:00:53;13.30;99.90
9125;DHT22;4597;48.730;9.114;2024-02-14T16:03:20;13.20;99.90
9125;DHT22;4597;48.730;9.114;2024-02-14T16:05:45;13.20;99.90
9125;DHT22;4597;48.730;9.114;2024-02-14T16:08:15;13.10;99.90